Time;durP1;ratioP1;P1;durP2;ratioP2;P2;SDS_P1;SDS_P2;PMS_P1;PMS_P2;Temp;Humidity;BMP_temperature;BMP_pressure;BME280_temperature;BME280_humidity;BME280_pressure;Samples;Min_cycle;Max_cycle;Signal;HPM_P1;HPM_P2
2021/10/21 16:14:17;;;;;;;23.30;8.80;;;;;;;14.52;58.68;97866.89;113705;1193;97648;-73
2021/10/21 16:17:06;;;;;;;22.20;8.60;;;;;;;14.52;58.61;97868.80;113735;1192;95045;-72
2021/10/21 16:19:35;;;;;;;21.60;9.00;;;;;;;14.53;58.75;97872.85;113354;1193;111167;-73
2021/10/21 16:27:32;;;;;;;19.70;9.00;;;;;;;14.53;58.77;97887.42;113738;1193;97528;-73
2021/10/21 16:30:10;;;;;;;19.10;8.50;;;;;;;14.53;58.80;97891.70;113808;1193;97556;-73
2021/10/21 16:32:39;;;;;;;22.50;9.50;;;;;;;14.52;58.81;97903.54;113691;1193;111254;-73
2021/10/21 16:35:07;;;;;;;22.90;9.30;;;;;;;14.52;58.79;97915.72;113744;1192;97662;-73
2021/10/21 16:37:35;;;;;;;19.50;8.60;;;;;;;14.53;58.89;97916.90;113686;1193;107495;-73
2021/10/21 16:40:05;;;;;;;21.50;9.10;;;;;;;14.53;58.97;97908.66;113729;1193;97674;-74
2021/10/21 16:42:35;;;;;;;20.80;9.20;;;;;;;14.51;58.91;97918.49;113667;1193;95122;-74
2021/10/21 16:45:06;;;;;;;18.20;7.90;;;;;;;14.51;59.02;97924.71;113669;1187;111150;-69
2021/10/21 16:47:35;;;;;;;23.40;10.00;;;;;;;14.50;59.01;97928.08;113693;1192;95016;-72
2021/10/21 16:50:06;;;;;;;22.50;9.70;;;;;;;14.48;58.92;97930.23;113475;1193;107494;-73
2021/10/21 16:52:39;;;;;;;21.80;9.90;;;;;;;14.50;59.12;97927.72;113460;1193;97715;-71
2021/10/21 16:55:08;;;;;;;21.60;9.30;;;;;;;14.48;59.03;97920.29;113323;1193;96933;-69
2021/10/21 16:57:36;;;;;;;21.40;8.90;;;;;;;14.47;59.05;97927.52;113437;1193;111126;-71
2021/10/21 17:00:06;;;;;;;24.10;9.40;;;;;;;14.46;59.15;97929.77;113635;1192;97482;-73
2021/10/21 17:02:36;;;;;;;24.80;9.10;;;;;;;14.46;59.11;97933.20;113653;1193;107618;-76
2021/10/21 17:05:05;;;;;;;20.40;8.90;;;;;;;14.45;59.20;97941.47;113427;1193;97526;-71
2021/10/21 17:07:35;;;;;;;26.40;10.30;;;;;;;14.43;59.12;97948.59;113445;1193;97741;-74
2021/10/21 17:10:05;;;;;;;26.60;10.40;;;;;;;14.42;59.10;97948.86;113510;1193;111345;-71
2021/10/21 17:12:33;;;;;;;24.10;9.80;;;;;;;14.40;59.19;97947.27;113608;1193;95046;-71
2021/10/21 17:15:02;;;;;;;20.40;9.30;;;;;;;14.39;59.21;97947.10;113400;1193;107616;-73
2021/10/21 17:17:30;;;;;;;22.70;9.60;;;;;;;14.38;59.36;97942.25;113340;1193;97599;-70
2021/10/21 17:19:59;;;;;;;22.70;9.40;;;;;;;14.35;59.29;97945.38;113508;1193;95099;-69
2021/10/21 17:22:27;;;;;;;20.20;9.00;;;;;;;14.33;59.30;97945.08;113443;1193;111218;-71
2021/10/21 17:24:57;;;;;;;24.00;9.80;;;;;;;14.31;59.31;97953.13;113487;1193;95389;-71
2021/10/21 17:27:26;;;;;;;20.60;9.10;;;;;;;14.28;59.37;97965.52;113566;1193;108622;-72
2021/10/21 17:29:54;;;;;;;22.10;9.00;;;;;;;14.25;59.42;97966.86;113539;1179;97625;-74
2021/10/21 17:32:23;;;;;;;21.50;9.80;;;;;;;14.23;59.55;97965.88;113462;1192;97579;-72
2021/10/21 17:34:50;;;;;;;24.00;10.30;;;;;;;14.20;59.44;97973.36;113554;1193;110147;-72
2021/10/21 17:37:18;;;;;;;20.30;9.30;;;;;;;14.18;59.48;97978.66;113502;1193;95890;-69
2021/10/21 17:39:46;;;;;;;22.00;9.40;;;;;;;14.18;59.43;97982.11;113472;1193;108445;-73
2021/10/21 17:42:14;;;;;;;26.80;10.10;;;;;;;14.16;59.48;97984.08;113406;1177;97585;-71
2021/10/21 17:44:42;;;;;;;20.50;9.00;;;;;;;14.16;59.49;97990.36;113369;1192;97976;-70
2021/10/21 17:47:10;;;;;;;23.70;10.20;;;;;;;14.15;59.48;98007.70;113482;1193;111197;-74
2021/10/21 17:49:38;;;;;;;23.50;10.90;;;;;;;14.14;59.52;98010.81;113525;1193;97645;-72
2021/10/21 17:52:06;;;;;;;21.00;9.40;;;;;;;14.14;59.46;98007.30;113534;1193;107631;-72
2021/10/21 17:54:33;;;;;;;23.70;9.90;;;;;;;14.14;59.51;98002.98;113534;1193;97564;-72
2021/10/21 17:57:02;;;;;;;23.10;9.50;;;;;;;14.14;59.56;97999.21;113657;1192;97552;-71
2021/10/21 17:59:30;;;;;;;21.80;10.10;;;;;;;14.15;59.60;97991.33;113478;1192;111688;-72
2021/10/21 18:01:58;;;;;;;21.70;9.60;;;;;;;14.13;59.63;97992.70;113497;1192;97558;-71
2021/10/21 18:04:26;;;;;;;20.80;9.50;;;;;;;14.14;59.59;97987.64;113488;1193;108093;-72
2021/10/21 18:06:55;;;;;;;18.30;8.50;;;;;;;14.16;59.61;97991.23;113311;1193;97562;-70
2021/10/21 18:09:23;;;;;;;20.50;8.60;;;;;;;14.17;59.58;97997.35;113579;1193;97716;-73
2021/10/21 18:11:54;;;;;;;22.10;8.10;;;;;;;14.18;59.69;97995.09;113605;1192;111147;-71
2021/10/21 18:14:22;;;;;;;17.10;7.50;;;;;;;14.19;59.65;97989.84;113700;1193;98063;-70
2021/10/21 18:16:50;;;;;;;19.10;7.80;;;;;;;14.20;59.64;97996.66;113696;1193;107492;-71
2021/10/21 18:19:18;;;;;;;18.80;7.80;;;;;;;14.21;59.66;98001.73;113616;1193;97574;-71
2021/10/21 18:21:46;;;;;;;21.10;8.60;;;;;;;14.23;59.74;98006.34;113377;1193;97660;-73
2021/10/21 18:24:14;;;;;;;23.00;9.30;;;;;;;14.23;59.70;98013.05;113375;1193;111800;-72
2021/10/21 18:26:43;;;;;;;20.40;8.60;;;;;;;14.24;59.63;98020.72;113495;1193;97678;-72
2021/10/21 18:29:12;;;;;;;23.20;9.40;;;;;;;14.24;59.59;98026.80;113448;1193;106673;-73
2021/10/21 18:31:40;;;;;;;19.50;8.00;;;;;;;14.24;59.64;98026.96;113570;1193;97651;-71
2021/10/21 18:34:11;;;;;;;20.20;8.60;;;;;;;14.24;59.67;98030.32;113596;1193;98320;-71
2021/10/21 18:36:42;;;;;;;19.70;8.30;;;;;;;14.24;59.62;98032.83;113579;1192;109728;-70
2021/10/21 18:39:12;;;;;;;20.40;8.70;;;;;;;14.25;59.64;98030.76;113631;1193;97653;-72
2021/10/21 18:41:42;;;;;;;20.90;8.50;;;;;;;14.25;59.62;98029.98;113582;1192;105654;-71
2021/10/21 18:44:14;;;;;;;18.30;7.40;;;;;;;14.26;59.61;98029.02;113564;1192;97544;-68
2021/10/21 18:46:42;;;;;;;17.80;6.90;;;;;;;14.27;59.61;98028.52;113441;1193;95144;-69
2021/10/21 18:49:12;;;;;;;20.40;6.10;;;;;;;14.29;59.62;98026.41;113565;1192;111334;-69
2021/10/21 18:51:44;;;;;;;16.00;6.10;;;;;;;14.31;59.55;98020.30;113521;1192;97560;-69
2021/10/21 18:54:15;;;;;;;14.20;6.00;;;;;;;14.34;59.54;98018.08;113528;1193;107326;-70
2021/10/21 18:56:44;;;;;;;15.60;5.70;;;;;;;14.36;59.46;98012.42;113575;1193;97647;-70
2021/10/21 18:59:13;;;;;;;16.40;5.20;;;;;;;14.40;59.35;98022.65;113534;1193;97576;-71
2021/10/21 19:01:40;;;;;;;15.10;5.60;;;;;;;14.44;59.27;98034.30;113466;1192;111619;-70
2021/10/21 19:04:09;;;;;;;11.20;4.90;;;;;;;14.48;59.07;98035.13;113439;1192;97605;-71
2021/10/21 19:06:37;;;;;;;13.90;5.30;;;;;;;14.52;59.01;98040.52;113385;1193;107502;-73
2021/10/21 19:09:06;;;;;;;12.70;4.70;;;;;;;14.56;58.96;98049.29;113323;1193;97660;-71
2021/10/21 19:11:35;;;;;;;16.60;5.30;;;;;;;14.59;58.83;98052.17;113532;1193;97708;-70
2021/10/21 19:14:05;;;;;;;12.20;4.80;;;;;;;14.61;58.78;98048.42;113314;1193;111219;-71
2021/10/21 19:16:33;;;;;;;11.40;4.90;;;;;;;14.62;58.66;98049.55;113476;1193;95053;-72
2021/10/21 19:19:03;;;;;;;10.30;4.40;;;;;;;14.63;58.56;98049.25;113528;1192;105831;-73
2021/10/21 19:21:32;;;;;;;15.80;5.60;;;;;;;14.64;58.48;98049.88;113327;1192;97539;-72
2021/10/21 19:24:00;;;;;;;15.10;5.90;;;;;;;14.65;58.25;98050.89;113313;1193;97443;-71
2021/10/21 19:26:30;;;;;;;14.60;5.40;;;;;;;14.65;58.03;98042.42;113527;1192;111142;-72
2021/10/21 19:28:58;;;;;;;13.90;5.10;;;;;;;14.66;58.22;98032.66;113513;1193;98352;-72
2021/10/21 19:31:26;;;;;;;10.30;4.10;;;;;;;14.67;57.88;98032.83;113547;1193;107510;-72
2021/10/21 19:33:55;;;;;;;12.00;4.30;;;;;;;14.66;57.86;98035.53;113481;1193;97598;-75
2021/10/21 19:36:23;;;;;;;12.40;4.20;;;;;;;14.68;57.78;98036.46;113419;1193;95763;-72
2021/10/21 19:38:53;;;;;;;13.40;4.00;;;;;;;14.68;57.73;98035.02;113576;1193;111667;-73
2021/10/21 19:41:21;;;;;;;9.20;4.10;;;;;;;14.68;57.63;98039.45;113633;1193;96273;-71
2021/10/21 19:43:49;;;;;;;13.40;5.10;;;;;;;14.68;57.56;98044.30;113521;1193;107508;-72
2021/10/21 19:46:17;;;;;;;11.30;4.40;;;;;;;14.68;57.47;98044.25;113597;1193;97651;-74
2021/10/21 19:48:45;;;;;;;14.10;4.50;;;;;;;14.68;57.27;98044.13;113534;1193;97613;-72
2021/10/21 19:51:12;;;;;;;13.20;4.60;;;;;;;14.66;57.24;98043.90;113547;1193;111164;-72
2021/10/21 19:53:41;;;;;;;14.20;4.80;;;;;;;14.67;57.25;98044.73;113657;1192;97505;-69
2021/10/21 19:56:10;;;;;;;12.60;5.10;;;;;;;14.66;57.13;98046.64;113588;1192;107546;-71
2021/10/21 19:58:37;;;;;;;14.60;5.10;;;;;;;14.65;57.11;98043.33;113570;1193;97616;-70
2021/10/21 20:01:09;;;;;;;13.90;5.20;;;;;;;14.63;56.99;98044.42;113567;1192;97560;-72
2021/10/21 20:03:38;;;;;;;12.00;5.60;;;;;;;14.62;56.94;98055.09;113422;1193;111212;-72
2021/10/21 20:06:08;;;;;;;13.60;5.80;;;;;;;14.62;56.92;98060.67;113706;1193;96293;-72
2021/10/21 20:08:36;;;;;;;15.80;6.30;;;;;;;14.59;56.81;98056.29;113640;1193;107610;-71
2021/10/21 20:11:08;;;;;;;18.20;6.60;;;;;;;14.56;56.84;98062.13;113789;1193;97171;-71
2021/10/21 20:13:39;;;;;;;19.30;7.60;;;;;;;14.54;56.82;98064.27;113765;1192;97640;-72
2021/10/21 20:16:12;;;;;;;21.50;7.90;;;;;;;14.51;56.79;98073.48;113684;1192;111170;-72
2021/10/21 20:18:41;;;;;;;18.30;7.60;;;;;;;14.51;56.86;98078.87;113750;1193;97637;-71
2021/10/21 20:21:08;;;;;;;22.60;9.00;;;;;;;14.49;56.80;98085.55;113785;1193;107558;-72
2021/10/21 20:23:37;;;;;;;26.00;10.80;;;;;;;14.43;56.83;98088.77;113664;1193;98304;-71
2021/10/21 20:26:05;;;;;;;21.40;7.90;;;;;;;14.38;56.77;98101.45;113819;1192;97553;-72
2021/10/21 20:28:33;;;;;;;21.40;8.70;;;;;;;14.34;56.78;98101.13;113808;1192;110714;-72
2021/10/21 20:31:02;;;;;;;19.00;7.50;;;;;;;14.31;56.78;98106.77;113719;1192;97554;-72
2021/10/21 20:33:34;;;;;;;20.80;8.50;;;;;;;14.29;56.82;98110.71;113363;1193;107472;-72
2021/10/21 20:36:03;;;;;;;17.70;7.90;;;;;;;14.27;56.80;98100.83;113586;1192;97664;-73
2021/10/21 20:38:32;;;;;;;16.90;7.00;;;;;;;14.23;56.76;98104.10;113775;1192;97617;-74
2021/10/21 20:41:02;;;;;;;19.50;8.10;;;;;;;14.19;56.81;98104.36;113374;1192;111145;-72
2021/10/21 20:43:30;;;;;;;20.40;8.10;;;;;;;14.15;56.82;98103.48;113637;1193;97538;-72
2021/10/21 20:45:58;;;;;;;22.30;7.70;;;;;;;14.11;56.74;98106.29;113747;1192;107496;-73
2021/10/21 20:48:26;;;;;;;17.40;6.60;;;;;;;14.07;56.65;98095.54;113714;1193;97554;-70
2021/10/21 20:50:55;;;;;;;18.10;6.10;;;;;;;14.04;56.47;98101.70;113857;1193;95408;-75
2021/10/21 20:53:23;;;;;;;18.20;5.20;;;;;;;13.99;56.53;98107.75;113759;1193;111185;-73
2021/10/21 20:55:51;;;;;;;15.40;4.60;;;;;;;13.97;56.55;98111.89;113670;1192;95841;-74
2021/10/21 20:58:19;;;;;;;17.10;4.60;;;;;;;13.92;56.49;98110.55;113713;1192;107617;-74
2021/10/21 21:00:47;;;;;;;13.90;4.10;;;;;;;13.89;56.27;98108.72;113660;1192;95767;-75
2021/10/21 21:03:16;;;;;;;13.60;5.20;;;;;;;13.86;56.28;98112.81;113699;1193;97620;-74
2021/10/21 21:05:44;;;;;;;10.40;3.70;;;;;;;13.81;55.99;98118.48;113648;1192;111131;-73
2021/10/21 21:08:12;;;;;;;11.10;3.90;;;;;;;13.78;56.06;98118.40;113403;1200;97625;-74
2021/10/21 21:10:40;;;;;;;9.30;3.80;;;;;;;13.76;55.71;98125.58;113270;1193;107645;-74
2021/10/21 21:13:12;;;;;;;12.50;4.00;;;;;;;13.71;55.60;98128.03;113985;1193;97659;-74
2021/10/21 21:15:44;;;;;;;14.30;4.10;;;;;;;13.66;55.86;98128.99;113448;1193;95015;-76
2021/10/21 21:18:13;;;;;;;11.00;3.80;;;;;;;13.64;55.88;98131.80;113435;1193;112114;-74
2021/10/21 21:20:41;;;;;;;12.10;3.90;;;;;;;13.62;55.74;98134.11;113332;1193;97566;-73
2021/10/21 21:23:10;;;;;;;15.80;4.20;;;;;;;13.58;55.08;98140.59;113438;1192;107560;-74
2021/10/21 21:25:39;;;;;;;11.40;3.80;;;;;;;13.55;55.18;98143.21;113309;1192;97695;-74
2021/10/21 21:28:08;;;;;;;11.70;3.40;;;;;;;13.52;55.51;98141.97;113381;1194;97580;-75
2021/10/21 21:30:41;;;;;;;11.80;4.00;;;;;;;13.50;55.29;98139.38;113448;1193;111200;-74
2021/10/21 21:33:10;;;;;;;9.00;3.30;;;;;;;13.47;55.45;98143.79;113501;1192;96363;-73
2021/10/21 21:35:38;;;;;;;13.40;3.70;;;;;;;13.44;55.51;98142.30;113339;1193;107492;-74
2021/10/21 21:38:06;;;;;;;10.00;3.20;;;;;;;13.39;55.05;98143.78;113342;1193;95819;-75
2021/10/21 21:40:34;;;;;;;12.40;4.30;;;;;;;13.34;55.19;98138.21;113380;1192;97557;-73
2021/10/21 21:43:04;;;;;;;9.80;3.70;;;;;;;13.30;55.27;98148.05;113371;1192;112128;-72
2021/10/21 21:45:32;;;;;;;13.60;3.80;;;;;;;13.27;55.28;98147.66;113423;1192;97560;-71
2021/10/21 21:48:00;;;;;;;9.60;3.80;;;;;;;13.22;55.12;98143.30;113470;1192;107589;-72
2021/10/21 21:50:29;;;;;;;13.10;4.60;;;;;;;13.18;55.22;98142.82;113292;1193;97634;-72
2021/10/21 21:52:57;;;;;;;10.60;4.10;;;;;;;13.13;54.66;98136.92;113353;1193;96540;-73
2021/10/21 21:55:25;;;;;;;13.50;4.50;;;;;;;13.09;55.06;98135.85;113326;1193;111159;-71
2021/10/21 21:57:54;;;;;;;14.30;4.10;;;;;;;13.05;55.10;98135.55;113580;1192;97534;-72
2021/10/21 22:00:27;;;;;;;10.20;3.70;;;;;;;13.02;55.07;98134.31;113561;1192;107606;-72
2021/10/21 22:02:56;;;;;;;9.30;3.30;;;;;;;12.97;55.15;98134.52;113612;1193;97642;-72
2021/10/21 22:05:24;;;;;;;15.10;4.10;;;;;;;12.92;54.91;98137.34;113738;1193;96943;-72
2021/10/21 22:07:53;;;;;;;12.40;4.10;;;;;;;12.85;54.92;98136.77;113618;1193;112087;-72
2021/10/21 22:10:21;;;;;;;11.60;3.90;;;;;;;12.78;54.93;98139.39;113667;1194;97618;-73
2021/10/21 22:12:50;;;;;;;10.50;3.70;;;;;;;12.73;54.75;98142.39;113708;1193;107623;-72
2021/10/21 22:15:21;;;;;;;10.20;3.30;;;;;;;12.68;54.77;98147.69;113803;1192;97503;-71
2021/10/21 22:17:53;;;;;;;12.30;3.70;;;;;;;12.63;54.80;98151.11;113476;1193;97635;-73
2021/10/21 22:20:25;;;;;;;9.10;3.20;;;;;;;12.60;54.56;98153.25;113641;1193;111188;-72
2021/10/21 22:22:54;;;;;;;10.70;3.90;;;;;;;12.56;54.67;98157.68;113827;1193;98005;-71
2021/10/21 22:25:23;;;;;;;10.30;3.60;;;;;;;12.51;54.61;98160.45;113847;1193;108026;-73
2021/10/21 22:27:51;;;;;;;8.70;3.10;;;;;;;12.47;54.57;98165.83;113526;1193;97544;-72
2021/10/21 22:30:20;;;;;;;11.90;2.90;;;;;;;12.44;54.51;98164.15;113532;1193;97756;-72
2021/10/21 22:32:48;;;;;;;8.60;3.20;;;;;;;12.41;54.46;98169.20;114544;1192;111136;-72
2021/10/21 22:35:16;;;;;;;8.60;3.20;;;;;;;12.36;54.46;98174.99;113318;1193;97758;-72
2021/10/21 22:37:44;;;;;;;8.20;3.00;;;;;;;12.33;54.42;98176.55;113839;1192;107463;-72
2021/10/21 22:40:12;;;;;;;9.10;3.00;;;;;;;12.31;54.45;98177.31;113568;1192;97555;-73
2021/10/21 22:42:53;;;;;;;9.60;3.30;;;;;;;12.26;54.32;98176.64;113242;1193;97683;-72
2021/10/21 22:45:24;;;;;;;9.60;2.90;;;;;;;12.22;54.24;98178.65;113610;1192;112176;-73
2021/10/21 22:47:55;;;;;;;11.50;3.30;;;;;;;12.19;54.39;98174.82;113304;1193;95730;-72
2021/10/21 22:50:22;;;;;;;12.70;3.20;;;;;;;12.18;54.33;98168.70;114372;1184;107549;-72
2021/10/21 22:52:55;;;;;;;11.50;3.40;;;;;;;12.16;54.34;98171.36;113402;1193;97639;-72
2021/10/21 22:55:24;;;;;;;12.70;3.10;;;;;;;12.15;54.42;98176.15;113254;1193;95762;-72
2021/10/21 22:57:55;;;;;;;7.60;2.90;;;;;;;12.14;54.36;98181.52;113207;1193;111301;-72
2021/10/21 23:00:47;;;;;;;12.80;3.10;;;;;;;12.12;54.28;98184.23;113563;1192;97622;-72
2021/10/21 23:03:17;;;;;;;9.00;3.10;;;;;;;12.07;54.22;98183.19;113301;1193;107543;-72
2021/10/21 23:05:46;;;;;;;7.90;2.60;;;;;;;12.03;54.24;98190.36;113577;1192;95045;-72
2021/10/21 23:08:17;;;;;;;13.00;3.10;;;;;;;12.00;54.14;98198.27;113346;1193;96476;-73
2021/10/21 23:10:45;;;;;;;10.70;3.30;;;;;;;11.96;54.09;98212.34;113527;1192;110713;-71
2021/10/21 23:13:14;;;;;;;12.70;2.90;;;;;;;11.92;54.13;98214.41;114096;1192;97688;-74
2021/10/21 23:15:48;;;;;;;11.10;3.40;;;;;;;11.88;53.94;98212.08;113515;1193;107568;-72
2021/10/21 23:18:16;;;;;;;9.80;2.70;;;;;;;11.85;54.04;98220.36;113490;1193;97847;-73
2021/10/21 23:20:48;;;;;;;14.00;3.30;;;;;;;11.82;53.92;98217.10;113600;1192;94969;-72
2021/10/21 23:23:16;;;;;;;9.80;2.90;;;;;;;11.77;53.98;98215.42;113537;1193;110868;-72
2021/10/21 23:25:44;;;;;;;11.60;3.10;;;;;;;11.73;53.86;98217.20;113628;1192;97303;-72
2021/10/21 23:28:13;;;;;;;8.70;3.40;;;;;;;11.69;53.95;98214.38;113433;1178;107516;-74
2021/10/21 23:30:44;;;;;;;8.70;2.70;;;;;;;11.66;53.95;98219.23;113652;1192;97588;-72
2021/10/21 23:33:12;;;;;;;11.60;2.80;;;;;;;11.64;53.83;98231.00;113693;1193;96888;-71
2021/10/21 23:35:40;;;;;;;9.40;2.70;;;;;;;11.61;53.70;98231.43;113706;1192;110906;-72
2021/10/21 23:38:15;;;;;;;9.10;2.60;;;;;;;11.59;53.75;98228.55;113520;1193;97642;-73
2021/10/21 23:40:46;;;;;;;3.60;2.10;;;;;;;11.58;53.58;98224.20;113506;1193;106910;-72
2021/10/21 23:43:16;;;;;;;7.50;2.60;;;;;;;11.58;53.54;98225.67;113677;1192;97627;-73
2021/10/21 23:45:45;;;;;;;6.70;2.60;;;;;;;11.59;53.48;98230.73;113547;1193;97662;-74
2021/10/21 23:48:14;;;;;;;7.40;2.50;;;;;;;11.60;53.52;98240.91;113358;1193;111197;-73
2021/10/21 23:50:42;;;;;;;4.90;2.00;;;;;;;11.61;53.48;98242.95;113256;1193;97689;-72
2021/10/21 23:53:10;;;;;;;9.50;2.80;;;;;;;11.63;53.45;98239.27;114012;1193;107446;-72
2021/10/21 23:55:42;;;;;;;5.10;2.00;;;;;;;11.62;53.37;98241.64;113752;1192;97582;-73
2021/10/21 23:58:10;;;;;;;5.40;2.50;;;;;;;11.62;53.15;98248.89;113777;1192;97559;-72
